Time;durP1;ratioP1;P1;durP2;ratioP2;P2;SDS_P1;SDS_P2;PMS_P1;PMS_P2;Temp;Humidity;BMP_temperature;BMP_pressure;BME280_temperature;BME280_humidity;BME280_pressure;Samples;Min_cycle;Max_cycle;Signal;HPM_P1;HPM_P2
2022/08/03 00:01:39;;;;;;;0.30;0.30;;;;;;;;;;5053599;28;20178;-74
2022/08/03 00:04:04;;;;;;;0.20;0.20;;;;;;;;;;5031402;28;20033;-73
2022/08/03 00:06:30;;;;;;;0.20;0.20;;;;;;;;;;5051735;28;20048;-73
2022/08/03 00:08:56;;;;;;;0.68;0.68;;;;;;;;;;5053343;28;20036;-78
2022/08/03 00:11:22;;;;;;;0.30;0.30;;;;;;;;;;5053584;28;20380;-74
2022/08/03 00:13:48;;;;;;;0.20;0.20;;;;;;;;;;5054217;28;20079;-74
2022/08/03 00:16:14;;;;;;;0.20;0.20;;;;;;;;;;5053958;28;20095;-73
2022/08/03 00:18:40;;;;;;;0.22;0.22;;;;;;;;;;5036509;28;20131;-71
2022/08/03 00:21:06;;;;;;;0.30;0.30;;;;;;;;;;5052599;28;20025;-73
2022/08/03 00:23:31;;;;;;;0.20;0.20;;;;;;;;;;5053952;28;20559;-74
2022/08/03 00:25:57;;;;;;;0.30;0.30;;;;;;;;;;5052553;28;20024;-73
2022/08/03 00:28:23;;;;;;;0.30;0.30;;;;;;;;;;5054077;28;20108;-74
2022/08/03 00:30:48;;;;;;;0.28;0.28;;;;;;;;;;5052523;28;20119;-74
2022/08/03 00:33:14;;;;;;;0.20;0.20;;;;;;;;;;5053749;28;20074;-73
2022/08/03 00:35:40;;;;;;;0.30;0.30;;;;;;;;;;5053526;28;20432;-73
2022/08/03 00:38:05;;;;;;;0.20;0.20;;;;;;;;;;5053912;28;20044;-74
2022/08/03 00:40:31;;;;;;;0.25;0.25;;;;;;;;;;5053946;28;20396;-73
2022/08/03 00:43:01;;;;;;;0.43;0.43;;;;;;;;;;5053391;28;20049;-76
2022/08/03 00:45:27;;;;;;;0.20;0.20;;;;;;;;;;5035363;28;20132;-74
2022/08/03 00:47:53;;;;;;;0.20;0.20;;;;;;;;;;5054279;28;20059;-74
2022/08/03 00:50:21;;;;;;;0.30;0.30;;;;;;;;;;5052463;28;20056;-74
2022/08/03 00:52:48;;;;;;;0.20;0.20;;;;;;;;;;5052514;28;20040;-74
2022/08/03 00:55:13;;;;;;;0.20;0.20;;;;;;;;;;5051706;28;20028;-72
2022/08/03 00:57:39;;;;;;;0.20;0.20;;;;;;;;;;5053459;28;20028;-73
2022/08/03 01:00:05;;;;;;;0.20;0.20;;;;;;;;;;5052048;28;20044;-74
2022/08/03 01:02:32;;;;;;;0.20;0.20;;;;;;;;;;5027338;28;20033;-73
2022/08/03 01:04:58;;;;;;;0.20;0.20;;;;;;;;;;5040656;28;20022;-73
2022/08/03 01:07:29;;;;;;;0.20;0.20;;;;;;;;;;5033781;28;20045;-74
2022/08/03 01:10:01;;;;;;;0.30;0.30;;;;;;;;;;5032207;28;20481;-74
2022/08/03 01:12:33;;;;;;;0.30;0.30;;;;;;;;;;5015488;28;20039;-74
2022/08/03 01:15:04;;;;;;;0.20;0.20;;;;;;;;;;5015397;28;20052;-74
2022/08/03 01:17:37;;;;;;;0.20;0.20;;;;;;;;;;5032090;28;20037;-74
2022/08/03 01:20:05;;;;;;;3.38;3.22;;;;;;;;;;5032134;28;20033;-74
2022/08/03 01:22:50;;;;;;;0.20;0.20;;;;;;;;;;5046254;28;20032;-73
2022/08/03 01:25:22;;;;;;;1.60;1.50;;;;;;;;;;5051663;28;20372;-75
2022/08/03 01:27:56;;;;;;;0.30;0.30;;;;;;;;;;5059713;28;20029;-73
2022/08/03 01:30:30;;;;;;;0.30;0.30;;;;;;;;;;5042322;28;20144;-73
2022/08/03 01:33:04;;;;;;;0.30;0.30;;;;;;;;;;5052171;28;20120;-74
2022/08/03 01:35:35;;;;;;;0.30;0.30;;;;;;;;;;5052034;28;20025;-73
2022/08/03 01:38:03;;;;;;;0.20;0.20;;;;;;;;;;5052114;28;20107;-74
2022/08/03 01:40:31;;;;;;;0.20;0.20;;;;;;;;;;5053380;28;20120;-73
2022/08/03 01:42:58;;;;;;;1.40;1.38;;;;;;;;;;5035078;28;20029;-74
2022/08/03 01:45:24;;;;;;;1.48;1.38;;;;;;;;;;5051797;28;20078;-73
2022/08/03 01:47:50;;;;;;;0.20;0.20;;;;;;;;;;5051876;28;20028;-73
2022/08/03 01:50:19;;;;;;;0.22;0.22;;;;;;;;;;5035231;28;20040;-73
2022/08/03 01:52:46;;;;;;;0.30;0.30;;;;;;;;;;5052180;28;20036;-74
2022/08/03 01:55:12;;;;;;;0.20;0.20;;;;;;;;;;5035630;28;20116;-72
2022/08/03 01:57:39;;;;;;;0.15;0.15;;;;;;;;;;5053149;28;20135;-74
2022/08/03 02:00:08;;;;;;;0.20;0.20;;;;;;;;;;5051792;28;20404;-72
2022/08/03 02:02:38;;;;;;;0.20;0.20;;;;;;;;;;5051570;28;20484;-71
2022/08/03 02:05:06;;;;;;;0.20;0.20;;;;;;;;;;5034927;28;20040;-71
2022/08/03 02:07:32;;;;;;;0.20;0.20;;;;;;;;;;5051543;28;20029;-72
2022/08/03 02:09:58;;;;;;;0.20;0.20;;;;;;;;;;5035222;28;20388;-73
2022/08/03 02:12:25;;;;;;;0.20;0.20;;;;;;;;;;5051629;28;20563;-72
2022/08/03 02:14:51;;;;;;;0.20;0.20;;;;;;;;;;5052940;28;20390;-73
2022/08/03 02:17:18;;;;;;;0.20;0.20;;;;;;;;;;5051214;28;20511;-74
2022/08/03 02:19:44;;;;;;;0.20;0.20;;;;;;;;;;5034745;28;20045;-73
2022/08/03 02:22:11;;;;;;;0.10;0.10;;;;;;;;;;5052541;28;20030;-73
2022/08/03 02:24:38;;;;;;;0.38;0.38;;;;;;;;;;5035106;28;20040;-72
2022/08/03 02:27:07;;;;;;;0.20;0.20;;;;;;;;;;5035377;28;20060;-72
2022/08/03 02:29:35;;;;;;;0.30;0.30;;;;;;;;;;5052792;28;20025;-72
2022/08/03 02:32:03;;;;;;;0.20;0.20;;;;;;;;;;5035167;28;20431;-72
2022/08/03 02:34:30;;;;;;;0.10;0.10;;;;;;;;;;5052679;28;20033;-72
2022/08/03 02:36:59;;;;;;;0.20;0.20;;;;;;;;;;5051149;28;20485;-72
2022/08/03 02:39:26;;;;;;;0.30;0.30;;;;;;;;;;5052576;28;20044;-71
2022/08/03 02:42:00;;;;;;;0.20;0.20;;;;;;;;;;5051602;28;20036;-71
2022/08/03 02:44:27;;;;;;;0.32;0.32;;;;;;;;;;5051384;28;20078;-72
2022/08/03 02:46:54;;;;;;;0.20;0.20;;;;;;;;;;5038171;28;20539;-72
2022/08/03 02:49:20;;;;;;;0.20;0.20;;;;;;;;;;5038659;28;20121;-72
2022/08/03 02:51:46;;;;;;;0.20;0.20;;;;;;;;;;5056334;28;20071;-71
2022/08/03 02:54:14;;;;;;;0.20;0.20;;;;;;;;;;5038438;28;20523;-71
2022/08/03 02:56:40;;;;;;;0.20;0.20;;;;;;;;;;5038291;28;20040;-71
2022/08/03 02:59:06;;;;;;;0.20;0.20;;;;;;;;;;5056409;28;20025;-71
2022/08/03 03:01:32;;;;;;;0.20;0.20;;;;;;;;;;5038050;28;20033;-72
2022/08/03 03:03:59;;;;;;;0.30;0.30;;;;;;;;;;5049383;28;20077;-71
2022/08/03 03:06:25;;;;;;;0.20;0.20;;;;;;;;;;5034399;28;20794;-71
2022/08/03 03:08:51;;;;;;;0.20;0.20;;;;;;;;;;5050962;28;20100;-70
2022/08/03 03:11:19;;;;;;;0.20;0.20;;;;;;;;;;5050806;28;20017;-71
2022/08/03 03:13:47;;;;;;;0.20;0.20;;;;;;;;;;5051184;28;20064;-70
2022/08/03 03:16:14;;;;;;;0.10;0.10;;;;;;;;;;5052572;28;20632;-70
2022/08/03 03:18:41;;;;;;;2.15;1.95;;;;;;;;;;5049754;28;20048;-76
2022/08/03 03:21:08;;;;;;;0.17;0.17;;;;;;;;;;5033504;28;20025;-71
2022/08/03 03:23:36;;;;;;;0.20;0.20;;;;;;;;;;5033368;28;20029;-71
2022/08/03 03:26:02;;;;;;;0.30;0.30;;;;;;;;;;5049881;28;20052;-72
2022/08/03 03:28:30;;;;;;;0.20;0.20;;;;;;;;;;5032885;28;20539;-72
2022/08/03 03:30:57;;;;;;;0.20;0.20;;;;;;;;;;5051396;28;20033;-82
2022/08/03 03:33:23;;;;;;;0.20;0.20;;;;;;;;;;5050810;28;20476;-71
2022/08/03 03:35:51;;;;;;;0.30;0.30;;;;;;;;;;5049481;28;20052;-71
2022/08/03 03:38:17;;;;;;;0.20;0.20;;;;;;;;;;5049963;28;20083;-75
2022/08/03 03:40:44;;;;;;;0.17;0.17;;;;;;;;;;5051275;28;20053;-74
2022/08/03 03:43:11;;;;;;;0.20;0.20;;;;;;;;;;5049551;28;20025;-74
2022/08/03 03:45:39;;;;;;;0.20;0.20;;;;;;;;;;5050128;28;20051;-75
2022/08/03 03:48:05;;;;;;;0.13;0.13;;;;;;;;;;5049886;28;20038;-73
2022/08/03 03:50:32;;;;;;;0.20;0.20;;;;;;;;;;5049850;28;20032;-76
2022/08/03 03:52:58;;;;;;;0.20;0.20;;;;;;;;;;5033281;28;20025;-74
2022/08/03 03:55:24;;;;;;;2.15;2.05;;;;;;;;;;5051090;28;20071;-74
2022/08/03 03:57:49;;;;;;;0.55;0.50;;;;;;;;;;5050704;28;20461;-73
2022/08/03 04:00:16;;;;;;;0.20;0.20;;;;;;;;;;5032853;28;20124;-73
2022/08/03 04:02:42;;;;;;;0.20;0.20;;;;;;;;;;5032937;28;20036;-74
2022/08/03 04:11:00;;;;;;;0.20;0.20;;;;;;;;;;5051104;28;20512;-72
2022/08/03 04:13:49;;;;;;;0.20;0.20;;;;;;;;;;5049638;28;20033;-72
2022/08/03 04:16:16;;;;;;;13.30;1.20;;;;;;;;;;5040213;28;20051;-71
2022/08/03 04:18:47;;;;;;;0.20;0.20;;;;;;;;;;5050452;28;20384;-73
2022/08/03 04:21:13;;;;;;;0.20;0.20;;;;;;;;;;5032973;28;20456;-73
2022/08/03 04:23:43;;;;;;;0.20;0.20;;;;;;;;;;5049397;28;20115;-73
2022/08/03 04:26:11;;;;;;;0.20;0.20;;;;;;;;;;5032794;28;20033;-76
2022/08/03 04:28:38;;;;;;;0.20;0.20;;;;;;;;;;5032441;28;20506;-72
2022/08/03 04:31:04;;;;;;;0.17;0.17;;;;;;;;;;5050118;28;20040;-72
2022/08/03 04:33:31;;;;;;;0.20;0.20;;;;;;;;;;5032576;28;20120;-72
2022/08/03 04:35:58;;;;;;;0.47;0.47;;;;;;;;;;5032577;28;20055;-74
2022/08/03 04:38:23;;;;;;;0.30;0.30;;;;;;;;;;5044921;28;20033;-73
2022/08/03 04:40:49;;;;;;;0.10;0.10;;;;;;;;;;5047655;28;20103;-72
2022/08/03 04:43:15;;;;;;;0.20;0.20;;;;;;;;;;5049249;28;20025;-72
2022/08/03 04:45:41;;;;;;;0.20;0.20;;;;;;;;;;5048814;28;20032;-74
2022/08/03 04:48:07;;;;;;;0.17;0.17;;;;;;;;;;5048966;28;20033;-75
2022/08/03 04:50:33;;;;;;;0.20;0.20;;;;;;;;;;5049954;28;20107;-74
2022/08/03 04:53:04;;;;;;;0.20;0.20;;;;;;;;;;5048602;28;20037;-74
2022/08/03 04:55:32;;;;;;;0.20;0.20;;;;;;;;;;5049395;28;20101;-74
2022/08/03 04:57:58;;;;;;;0.20;0.20;;;;;;;;;;5048998;28;20061;-71
2022/08/03 05:00:24;;;;;;;0.20;0.20;;;;;;;;;;5032970;28;20579;-73
2022/08/03 05:02:50;;;;;;;0.50;0.50;;;;;;;;;;5032094;28;20125;-72
2022/08/03 05:05:16;;;;;;;0.28;0.28;;;;;;;;;;5049590;28;20401;-72
2022/08/03 05:07:43;;;;;;;0.20;0.20;;;;;;;;;;5043002;28;20034;-70
2022/08/03 05:10:09;;;;;;;1.40;1.30;;;;;;;;;;5045319;28;20444;-72
2022/08/03 05:12:34;;;;;;;0.20;0.20;;;;;;;;;;5045978;28;20033;-71
2022/08/03 05:15:00;;;;;;;0.20;0.20;;;;;;;;;;5028365;28;20022;-72
2022/08/03 05:17:27;;;;;;;0.25;0.25;;;;;;;;;;5048818;28;20037;-73
2022/08/03 05:19:53;;;;;;;0.20;0.20;;;;;;;;;;5032073;28;20037;-73
2022/08/03 05:22:20;;;;;;;0.10;0.10;;;;;;;;;;5047997;28;20029;-72
2022/08/03 05:24:45;;;;;;;0.20;0.20;;;;;;;;;;5032114;28;20035;-73
2022/08/03 05:27:16;;;;;;;0.60;0.55;;;;;;;;;;5047992;28;20024;-74
2022/08/03 05:29:42;;;;;;;0.47;0.43;;;;;;;;;;5049451;28;20075;-73
2022/08/03 05:32:08;;;;;;;0.20;0.20;;;;;;;;;;5031884;28;20032;-73
2022/08/03 05:34:33;;;;;;;0.20;0.20;;;;;;;;;;5049953;28;20028;-74
2022/08/03 05:36:59;;;;;;;0.10;0.10;;;;;;;;;;5049263;28;20393;-74
2022/08/03 05:39:25;;;;;;;0.40;0.40;;;;;;;;;;5050268;28;20051;-72
2022/08/03 05:41:51;;;;;;;0.20;0.20;;;;;;;;;;5061444;28;20384;-70
2022/08/03 05:44:16;;;;;;;0.22;0.22;;;;;;;;;;5058047;28;20093;-71
2022/08/03 05:46:42;;;;;;;0.30;0.30;;;;;;;;;;5049051;28;20055;-72
2022/08/03 05:49:08;;;;;;;31.92;11.18;;;;;;;;;;5048312;28;20042;-72
2022/08/03 05:51:34;;;;;;;0.20;0.20;;;;;;;;;;5050580;28;20041;-70
2022/08/03 05:54:00;;;;;;;2.83;2.60;;;;;;;;;;5031383;28;20487;-71
2022/08/03 05:56:26;;;;;;;0.22;0.22;;;;;;;;;;5049133;28;20033;-71
2022/08/03 05:58:51;;;;;;;0.30;0.30;;;;;;;;;;5049237;28;20519;-72
2022/08/03 06:01:20;;;;;;;0.20;0.20;;;;;;;;;;5047467;28;20033;-72
2022/08/03 06:03:46;;;;;;;0.30;0.30;;;;;;;;;;5049305;28;20025;-73
2022/08/03 06:06:12;;;;;;;0.20;0.20;;;;;;;;;;5048087;28;20027;-73
2022/08/03 06:08:38;;;;;;;0.30;0.30;;;;;;;;;;5049418;28;20115;-73
2022/08/03 06:11:04;;;;;;;0.30;0.30;;;;;;;;;;5032311;28;20021;-73
2022/08/03 06:13:31;;;;;;;0.20;0.20;;;;;;;;;;5049592;28;20025;-73
2022/08/03 06:15:56;;;;;;;0.30;0.30;;;;;;;;;;5049391;28;20396;-72
2022/08/03 06:18:23;;;;;;;0.30;0.30;;;;;;;;;;5050043;28;20041;-72
2022/08/03 06:20:49;;;;;;;0.65;0.65;;;;;;;;;;5051963;28;20031;-74
2022/08/03 06:23:15;;;;;;;0.22;0.22;;;;;;;;;;5054984;28;20387;-73
2022/08/03 06:25:41;;;;;;;0.40;0.40;;;;;;;;;;5054932;28;20021;-73
2022/08/03 06:28:07;;;;;;;0.32;0.32;;;;;;;;;;5054237;28;20037;-73
2022/08/03 06:30:32;;;;;;;0.30;0.30;;;;;;;;;;5054898;28;20035;-73
2022/08/03 06:32:58;;;;;;;0.40;0.40;;;;;;;;;;5056459;28;20464;-72
2022/08/03 06:35:26;;;;;;;0.38;0.38;;;;;;;;;;5059734;28;20067;-72
2022/08/03 06:37:52;;;;;;;0.30;0.30;;;;;;;;;;5051787;28;20033;-72
2022/08/03 06:40:19;;;;;;;0.40;0.40;;;;;;;;;;5051415;28;20036;-73
2022/08/03 06:42:45;;;;;;;0.32;0.32;;;;;;;;;;5051701;28;20033;-74
2022/08/03 06:45:11;;;;;;;0.30;0.30;;;;;;;;;;5052315;28;20320;-74
2022/08/03 06:47:37;;;;;;;0.60;0.60;;;;;;;;;;5040000;28;20416;-72
2022/08/03 06:50:06;;;;;;;0.45;0.45;;;;;;;;;;5032477;28;20025;-73
2022/08/03 06:52:32;;;;;;;0.30;0.30;;;;;;;;;;5014628;28;20038;-74
2022/08/03 06:54:57;;;;;;;0.30;0.30;;;;;;;;;;5032554;28;20045;-74
2022/08/03 06:57:23;;;;;;;1.98;1.80;;;;;;;;;;5059845;28;20090;-75
2022/08/03 06:59:50;;;;;;;0.52;0.52;;;;;;;;;;5047990;28;20041;-71
2022/08/03 07:02:18;;;;;;;0.40;0.40;;;;;;;;;;5041142;28;20464;-73
2022/08/03 07:04:44;;;;;;;0.32;0.32;;;;;;;;;;5033841;28;20032;-74
2022/08/03 07:07:09;;;;;;;0.40;0.40;;;;;;;;;;5056155;28;20029;-73
2022/08/03 07:09:35;;;;;;;0.30;0.30;;;;;;;;;;5066096;28;20040;-71
2022/08/03 07:12:01;;;;;;;0.30;0.30;;;;;;;;;;5069742;28;20020;-73
2022/08/03 07:14:26;;;;;;;0.40;0.40;;;;;;;;;;5053663;28;20489;-75
2022/08/03 07:16:52;;;;;;;0.38;0.38;;;;;;;;;;5070511;28;20033;-72
2022/08/03 07:19:18;;;;;;;4.85;0.95;;;;;;;;;;5071604;28;20468;-73
2022/08/03 07:21:44;;;;;;;0.40;0.40;;;;;;;;;;5070610;28;20098;-76
2022/08/03 07:24:10;;;;;;;0.40;0.40;;;;;;;;;;5036221;28;20033;-77
2022/08/03 07:26:36;;;;;;;0.40;0.40;;;;;;;;;;5052684;28;20021;-72
2022/08/03 07:29:01;;;;;;;0.30;0.30;;;;;;;;;;5052137;28;20092;-73
2022/08/03 07:31:27;;;;;;;0.40;0.40;;;;;;;;;;5048859;28;20021;-73
2022/08/03 07:33:52;;;;;;;0.40;0.40;;;;;;;;;;5051407;28;20540;-75
2022/08/03 07:36:18;;;;;;;0.40;0.40;;;;;;;;;;5051251;28;20259;-71
2022/08/03 07:38:43;;;;;;;0.47;0.47;;;;;;;;;;5057309;28;20040;-72
2022/08/03 07:41:09;;;;;;;0.38;0.38;;;;;;;;;;5061688;28;20097;-73
2022/08/03 07:43:34;;;;;;;13.25;12.25;;;;;;;;;;5050103;28;20028;-73
2022/08/03 07:46:00;;;;;;;0.63;0.63;;;;;;;;;;5033884;28;20028;-72
2022/08/03 07:48:25;;;;;;;0.43;0.43;;;;;;;;;;5047231;28;20065;-78
2022/08/03 07:50:51;;;;;;;0.50;0.50;;;;;;;;;;5052771;28;20029;-73
2022/08/03 07:53:17;;;;;;;1.15;0.63;;;;;;;;;;5049028;28;20033;-76
2022/08/03 07:55:42;;;;;;;0.35;0.35;;;;;;;;;;5045895;28;20142;-73
2022/08/03 07:58:11;;;;;;;0.45;0.45;;;;;;;;;;5044121;28;20087;-72
2022/08/03 08:00:37;;;;;;;0.38;0.38;;;;;;;;;;5052177;28;20032;-73
2022/08/03 08:03:03;;;;;;;0.40;0.40;;;;;;;;;;5032722;28;20523;-77
2022/08/03 08:05:29;;;;;;;1.60;1.50;;;;;;;;;;5031527;28;20040;-76
2022/08/03 08:07:54;;;;;;;0.50;0.50;;;;;;;;;;5051358;28;20066;-73
2022/08/03 08:10:20;;;;;;;0.50;0.50;;;;;;;;;;5050495;28;20059;-77
2022/08/03 08:12:45;;;;;;;0.47;0.47;;;;;;;;;;5052914;28;20114;-74
2022/08/03 08:15:11;;;;;;;2.05;1.60;;;;;;;;;;5040142;28;20154;-78
2022/08/03 08:17:40;;;;;;;0.60;0.60;;;;;;;;;;5049190;28;20085;-75
2022/08/03 08:20:06;;;;;;;0.47;0.47;;;;;;;;;;5052837;28;20128;-74
2022/08/03 08:22:32;;;;;;;0.70;0.70;;;;;;;;;;5061133;28;20107;-74
2022/08/03 08:24:58;;;;;;;1.05;0.95;;;;;;;;;;5070426;28;20127;-74
2022/08/03 08:27:23;;;;;;;0.90;0.80;;;;;;;;;;5054008;28;20099;-75
2022/08/03 08:29:49;;;;;;;0.40;0.40;;;;;;;;;;5060763;28;20021;-74
2022/08/03 08:32:15;;;;;;;2.70;0.80;;;;;;;;;;5061375;28;20153;-76
2022/08/03 08:34:40;;;;;;;0.82;0.82;;;;;;;;;;5048021;28;20584;-76
2022/08/03 08:37:06;;;;;;;1.48;1.23;;;;;;;;;;5047659;28;20045;-76
2022/08/03 08:39:31;;;;;;;0.52;0.52;;;;;;;;;;5047226;28;20064;-75
2022/08/03 08:41:57;;;;;;;0.50;0.50;;;;;;;;;;5049301;28;20052;-77
2022/08/03 08:44:22;;;;;;;0.55;0.55;;;;;;;;;;5048248;28;20036;-76
2022/08/03 08:46:49;;;;;;;0.40;0.40;;;;;;;;;;5048313;28;20017;-75
2022/08/03 08:49:16;;;;;;;1.30;1.20;;;;;;;;;;5048092;28;20029;-75
2022/08/03 08:51:42;;;;;;;0.40;0.40;;;;;;;;;;5047857;28;20025;-74
2022/08/03 08:54:08;;;;;;;2.05;0.93;;;;;;;;;;5047427;28;20095;-76
2022/08/03 08:56:34;;;;;;;1.27;0.95;;;;;;;;;;5048061;28;20112;-76
2022/08/03 08:59:00;;;;;;;4.57;0.85;;;;;;;;;;5047014;28;20147;-77
2022/08/03 09:01:26;;;;;;;1.45;1.00;;;;;;;;;;5046942;28;20040;-74
2022/08/03 09:03:53;;;;;;;0.50;0.50;;;;;;;;;;5047247;28;20040;-76
2022/08/03 09:06:19;;;;;;;0.73;0.73;;;;;;;;;;5047649;28;20036;-75
2022/08/03 09:08:44;;;;;;;0.60;0.60;;;;;;;;;;5047564;28;20032;-76
2022/08/03 09:11:10;;;;;;;0.63;0.63;;;;;;;;;;5047168;28;20036;-76
2022/08/03 09:13:35;;;;;;;0.50;0.50;;;;;;;;;;5047185;28;20091;-77
2022/08/03 09:16:12;;;;;;;1.42;1.05;;;;;;;;;;5049301;28;20389;-77
2022/08/03 09:18:37;;;;;;;0.63;0.63;;;;;;;;;;5045987;28;20029;-77
2022/08/03 09:21:15;;;;;;;4.75;1.90;;;;;;;;;;5049033;28;20052;-78
2022/08/03 09:23:45;;;;;;;0.75;0.75;;;;;;;;;;5044700;28;20214;-75
2022/08/03 09:26:11;;;;;;;0.55;0.55;;;;;;;;;;5049453;28;20776;-78
2022/08/03 09:28:37;;;;;;;0.55;0.55;;;;;;;;;;5049142;28;20488;-77
2022/08/03 09:31:02;;;;;;;0.50;0.50;;;;;;;;;;5049328;28;20059;-78
2022/08/03 09:33:28;;;;;;;0.60;0.55;;;;;;;;;;5045675;28;20020;-78
2022/08/03 09:35:55;;;;;;;0.88;0.70;;;;;;;;;;5046907;28;20690;-79
2022/08/03 09:38:26;;;;;;;0.40;0.40;;;;;;;;;;5047349;28;20045;-79
2022/08/03 09:40:52;;;;;;;0.70;0.70;;;;;;;;;;5047403;28;20037;-80
2022/08/03 09:43:17;;;;;;;0.68;0.68;;;;;;;;;;5045976;28;20067;-78
2022/08/03 09:46:03;;;;;;;2.17;1.48;;;;;;;;;;5049653;28;20052;-80
2022/08/03 09:48:47;;;;;;;0.50;0.50;;;;;;;;;;5047843;28;20040;-79
2022/08/03 09:51:14;;;;;;;0.52;0.52;;;;;;;;;;5053895;28;20033;-79
2022/08/03 09:53:45;;;;;;;0.47;0.47;;;;;;;;;;5064584;28;20076;-76
2022/08/03 09:56:11;;;;;;;0.60;0.60;;;;;;;;;;5073476;28;20032;-77
2022/08/03 09:58:46;;;;;;;1.17;1.08;;;;;;;;;;5078812;28;20109;-79
2022/08/03 10:01:12;;;;;;;0.70;0.70;;;;;;;;;;5065223;28;20475;-79
2022/08/03 10:03:38;;;;;;;0.57;0.57;;;;;;;;;;5063099;28;20020;-78
2022/08/03 10:06:21;;;;;;;2.60;0.98;;;;;;;;;;5058661;28;20017;-75
2022/08/03 10:09:03;;;;;;;0.68;0.68;;;;;;;;;;5056381;28;20029;-77
2022/08/03 10:11:29;;;;;;;0.98;0.68;;;;;;;;;;5036818;28;20482;-78
2022/08/03 10:13:54;;;;;;;0.50;0.50;;;;;;;;;;5036503;28;20114;-77
2022/08/03 10:16:20;;;;;;;1.05;0.73;;;;;;;;;;5035564;28;20100;-78
2022/08/03 10:18:45;;;;;;;0.50;0.50;;;;;;;;;;5045668;28;20036;-77
2022/08/03 10:21:12;;;;;;;0.40;0.40;;;;;;;;;;5056227;28;20029;-79
2022/08/03 10:23:39;;;;;;;1.85;0.93;;;;;;;;;;5056239;28;20032;-77
2022/08/03 10:26:06;;;;;;;0.50;0.50;;;;;;;;;;5053962;28;20380;-77
2022/08/03 10:28:36;;;;;;;1.58;1.48;;;;;;;;;;5055766;28;20025;-78
2022/08/03 10:31:03;;;;;;;2.03;0.95;;;;;;;;;;5052948;28;20029;-80
2022/08/03 10:33:31;;;;;;;0.50;0.50;;;;;;;;;;5056118;28;20472;-77
2022/08/03 10:35:58;;;;;;;1.20;0.93;;;;;;;;;;5054941;28;20403;-79
2022/08/03 10:38:37;;;;;;;0.82;0.70;;;;;;;;;;5062081;28;20032;-73
2022/08/03 10:41:03;;;;;;;0.52;0.52;;;;;;;;;;5053704;28;20064;-80
2022/08/03 10:43:55;;;;;;;0.55;0.55;;;;;;;;;;5061075;28;20158;-77
2022/08/03 10:46:21;;;;;;;0.63;0.63;;;;;;;;;;5061900;28;20036;-81
2022/08/03 10:48:48;;;;;;;0.65;0.65;;;;;;;;;;5064116;28;20032;-74
2022/08/03 10:51:14;;;;;;;1.13;1.08;;;;;;;;;;5064164;28;20153;-74
2022/08/03 10:53:42;;;;;;;1.27;1.02;;;;;;;;;;5053496;28;20831;-75
2022/08/03 10:59:11;;;;;;;0.55;0.55;;;;;;;;;;5053248;28;20044;-75
2022/08/03 11:01:52;;;;;;;0.88;0.88;;;;;;;;;;5055591;28;20086;-75
2022/08/03 11:04:18;;;;;;;0.47;0.47;;;;;;;;;;5055101;28;20029;-74
2022/08/03 11:06:45;;;;;;;0.63;0.63;;;;;;;;;;5052244;28;20049;-76
2022/08/03 11:09:13;;;;;;;0.50;0.50;;;;;;;;;;5051593;28;20025;-74
2022/08/03 11:11:40;;;;;;;0.70;0.70;;;;;;;;;;5051166;28;20040;-75
2022/08/03 11:14:10;;;;;;;0.50;0.50;;;;;;;;;;5051920;28;20020;-76
2022/08/03 11:16:44;;;;;;;0.50;0.50;;;;;;;;;;5050862;28;20115;-76
2022/08/03 11:19:11;;;;;;;0.93;0.82;;;;;;;;;;5050306;28;20850;-75
2022/08/03 11:21:52;;;;;;;0.90;0.90;;;;;;;;;;5051766;28;20358;-75
2022/08/03 11:24:36;;;;;;;0.65;0.65;;;;;;;;;;5051931;28;20100;-77
2022/08/03 11:27:17;;;;;;;0.50;0.50;;;;;;;;;;5057886;28;20021;-76
2022/08/03 11:29:57;;;;;;;0.90;0.85;;;;;;;;;;5057942;28;20561;-73
2022/08/03 11:32:47;;;;;;;0.65;0.65;;;;;;;;;;5071509;28;20598;-76
2022/08/03 11:35:17;;;;;;;1.35;1.20;;;;;;;;;;5071227;28;20384;-75
2022/08/03 11:37:55;;;;;;;0.30;0.30;;;;;;;;;;5059194;28;20049;-77
2022/08/03 11:40:39;;;;;;;3.30;0.77;;;;;;;;;;5043492;28;20052;-77
2022/08/03 11:43:05;;;;;;;0.82;0.82;;;;;;;;;;5044957;28;20990;-77
2022/08/03 11:45:31;;;;;;;0.95;0.70;;;;;;;;;;5049131;28;20365;-78
2022/08/03 11:47:58;;;;;;;0.70;0.70;;;;;;;;;;5049379;28;20041;-78
2022/08/03 11:50:24;;;;;;;1.38;0.98;;;;;;;;;;5049845;28;20039;-78
2022/08/03 11:52:50;;;;;;;2.03;1.27;;;;;;;;;;5048930;28;20032;-81
2022/08/03 11:55:20;;;;;;;3.40;1.15;;;;;;;;;;5048589;28;20906;-77
2022/08/03 11:57:46;;;;;;;0.77;0.77;;;;;;;;;;5029479;28;20320;-81
2022/08/03 12:00:22;;;;;;;0.95;0.85;;;;;;;;;;5047509;28;20538;-78
2022/08/03 12:03:01;;;;;;;2.80;0.70;;;;;;;;;;5045487;28;20025;-76
2022/08/03 12:05:38;;;;;;;0.50;0.50;;;;;;;;;;5048739;28;20367;-76
2022/08/03 12:08:05;;;;;;;0.50;0.50;;;;;;;;;;5044237;28;20041;-78
2022/08/03 12:10:31;;;;;;;0.70;0.70;;;;;;;;;;5048464;28;20104;-79
2022/08/03 12:12:57;;;;;;;1.02;0.93;;;;;;;;;;5039609;28;20170;-76
2022/08/03 12:15:27;;;;;;;0.70;0.70;;;;;;;;;;5036362;28;20567;-78
2022/08/03 12:17:53;;;;;;;0.60;0.60;;;;;;;;;;5049301;28;20028;-77
2022/08/03 12:20:25;;;;;;;0.95;0.90;;;;;;;;;;5046851;28;20033;-77
2022/08/03 12:22:51;;;;;;;0.63;0.63;;;;;;;;;;5048442;28;20032;-76
2022/08/03 12:25:21;;;;;;;0.60;0.60;;;;;;;;;;5048013;28;20424;-78
2022/08/03 12:27:46;;;;;;;0.70;0.70;;;;;;;;;;5057782;28;20031;-78
2022/08/03 12:30:12;;;;;;;0.60;0.60;;;;;;;;;;5054007;28;20396;-78
2022/08/03 12:32:37;;;;;;;0.60;0.60;;;;;;;;;;5057496;28;20017;-78
2022/08/03 12:35:04;;;;;;;1.48;0.60;;;;;;;;;;5050076;28;20041;-79
2022/08/03 12:37:30;;;;;;;5.80;1.13;;;;;;;;;;5044209;28;20044;-79
2022/08/03 12:39:58;;;;;;;2.20;0.70;;;;;;;;;;5034159;28;20520;-80
2022/08/03 12:42:30;;;;;;;1.83;1.20;;;;;;;;;;5043532;28;20021;-76
2022/08/03 12:44:56;;;;;;;0.90;0.90;;;;;;;;;;5045239;28;20029;-72
2022/08/03 12:47:21;;;;;;;0.52;0.52;;;;;;;;;;5044775;28;20033;-78
2022/08/03 12:49:48;;;;;;;1.60;0.60;;;;;;;;;;5045264;28;20025;-79
2022/08/03 12:52:15;;;;;;;0.75;0.75;;;;;;;;;;5045705;28;20051;-81
2022/08/03 12:54:40;;;;;;;1.05;0.85;;;;;;;;;;5048929;28;20021;-79
2022/08/03 12:57:06;;;;;;;2.10;1.40;;;;;;;;;;5047519;28;20031;-80
2022/08/03 12:59:35;;;;;;;0.40;0.40;;;;;;;;;;5049193;28;20079;-77
2022/08/03 13:02:03;;;;;;;1.15;1.05;;;;;;;;;;5049804;28;20123;-80
2022/08/03 13:04:30;;;;;;;0.80;0.80;;;;;;;;;;5049061;28;20542;-75
2022/08/03 13:07:06;;;;;;;1.08;0.95;;;;;;;;;;5047939;28;20064;-73
2022/08/03 13:09:45;;;;;;;0.73;0.70;;;;;;;;;;5048680;28;20039;-74
2022/08/03 13:12:21;;;;;;;0.63;0.63;;;;;;;;;;5032309;28;20028;-74
2022/08/03 13:14:51;;;;;;;1.23;0.77;;;;;;;;;;5040256;28;20520;-72
2022/08/03 13:17:17;;;;;;;0.73;0.70;;;;;;;;;;5047109;28;20028;-73
2022/08/03 13:19:44;;;;;;;3.85;0.55;;;;;;;;;;5030961;28;20036;-73
2022/08/03 13:22:29;;;;;;;0.75;0.75;;;;;;;;;;5030344;28;20029;-76
2022/08/03 13:24:56;;;;;;;0.70;0.63;;;;;;;;;;5046467;28;20029;-74
2022/08/03 13:27:22;;;;;;;0.85;0.70;;;;;;;;;;5044760;28;20040;-73
2022/08/03 13:29:48;;;;;;;0.60;0.60;;;;;;;;;;5048302;28;20025;-74
2022/08/03 13:32:14;;;;;;;1.38;1.10;;;;;;;;;;5049597;28;20421;-73
2022/08/03 13:34:39;;;;;;;2.17;1.35;;;;;;;;;;5037741;28;20430;-74
2022/08/03 13:37:05;;;;;;;0.75;0.73;;;;;;;;;;5037649;28;20053;-73
2022/08/03 13:39:30;;;;;;;0.70;0.70;;;;;;;;;;5048984;28;20032;-75
2022/08/03 13:41:56;;;;;;;0.75;0.75;;;;;;;;;;5041112;28;20039;-79
2022/08/03 13:44:22;;;;;;;0.50;0.50;;;;;;;;;;5033160;28;20049;-75
2022/08/03 13:46:48;;;;;;;0.40;0.40;;;;;;;;;;5046037;28;20083;-75
2022/08/03 13:49:13;;;;;;;0.68;0.65;;;;;;;;;;5042714;28;20040;-75
2022/08/03 13:51:39;;;;;;;1.33;1.05;;;;;;;;;;5027449;28;20465;-75
2022/08/03 13:54:05;;;;;;;0.68;0.68;;;;;;;;;;5028095;28;20033;-73
2022/08/03 13:56:30;;;;;;;0.47;0.47;;;;;;;;;;5049001;28;20025;-75
2022/08/03 13:58:56;;;;;;;1.92;1.05;;;;;;;;;;5046763;28;20083;-77
2022/08/03 14:01:22;;;;;;;1.65;1.10;;;;;;;;;;5012892;28;20084;-75
2022/08/03 14:03:51;;;;;;;0.47;0.47;;;;;;;;;;5032007;28;20029;-74
2022/08/03 14:06:16;;;;;;;;;;;;;;;;;;5031722;28;20017;-75
2022/08/03 14:08:44;;;;;;;1.38;1.20;;;;;;;;;;5031914;28;20078;-74
2022/08/03 14:11:10;;;;;;;1.03;0.83;;;;;;;;;;5013000;28;20025;-72
2022/08/03 14:13:36;;;;;;;2.22;0.82;;;;;;;;;;5045796;28;20358;-73
2022/08/03 14:16:01;;;;;;;1.13;1.02;;;;;;;;;;5027979;28;20029;-73
2022/08/03 14:18:27;;;;;;;0.60;0.60;;;;;;;;;;5028404;28;20022;-74
2022/08/03 14:20:52;;;;;;;0.88;0.88;;;;;;;;;;5028257;28;20032;-74
2022/08/03 14:23:18;;;;;;;1.38;1.10;;;;;;;;;;5010237;28;20032;-75
2022/08/03 14:25:44;;;;;;;3.22;2.80;;;;;;;;;;5041260;28;20040;-73
2022/08/03 14:28:09;;;;;;;1.83;0.88;;;;;;;;;;5048626;28;20960;-75
2022/08/03 14:30:35;;;;;;;0.60;0.60;;;;;;;;;;5048420;28;20039;-73
2022/08/03 14:33:01;;;;;;;0.68;0.68;;;;;;;;;;5049324;28;20025;-74
2022/08/03 14:35:26;;;;;;;6.40;0.90;;;;;;;;;;5049521;28;20033;-75
2022/08/03 14:37:53;;;;;;;4.10;1.30;;;;;;;;;;5048596;28;20079;-73
2022/08/03 14:40:19;;;;;;;2.17;1.25;;;;;;;;;;5050091;28;20037;-74
2022/08/03 14:42:44;;;;;;;0.52;0.52;;;;;;;;;;5053332;28;20035;-73
2022/08/03 14:45:11;;;;;;;0.57;0.57;;;;;;;;;;5052690;28;20060;-74
2022/08/03 14:47:37;;;;;;;0.50;0.50;;;;;;;;;;5054571;28;20433;-78
2022/08/03 14:50:03;;;;;;;0.85;0.60;;;;;;;;;;5053604;28;20120;-74
2022/08/03 14:52:29;;;;;;;0.65;0.65;;;;;;;;;;5036741;28;20484;-73
2022/08/03 14:54:55;;;;;;;0.85;0.80;;;;;;;;;;5053075;28;20029;-73